createdAt,value
2022-12-11T00:02:11.352Z,100.00
2022-12-11T00:04:37.955Z,100.00
2022-12-11T00:07:04.515Z,100.00
2022-12-11T00:09:31.148Z,100.00
2022-12-11T00:11:57.767Z,100.00
2022-12-11T00:14:24.331Z,100.00
2022-12-11T00:16:50.970Z,100.00
2022-12-11T00:19:17.605Z,100.00
2022-12-11T00:21:44.179Z,100.00
2022-12-11T00:24:10.916Z,100.00
2022-12-11T00:26:37.826Z,100.00
2022-12-11T00:29:04.978Z,100.00
2022-12-11T00:31:31.590Z,100.00
2022-12-11T00:33:58.201Z,100.00
2022-12-11T00:36:26.752Z,100.00
2022-12-11T00:38:54.515Z,100.00
2022-12-11T00:41:21.903Z,100.00
2022-12-11T00:43:48.617Z,100.00
2022-12-11T00:46:15.464Z,100.00
2022-12-11T00:48:42.161Z,100.00
2022-12-11T00:51:10.345Z,100.00
2022-12-11T00:53:36.936Z,100.00
2022-12-11T00:56:10.685Z,100.00
2022-12-11T00:58:37.285Z,100.00
2022-12-11T01:01:14.404Z,100.00
2022-12-11T01:03:41.319Z,100.00
2022-12-11T01:06:08.469Z,100.00
2022-12-11T01:08:38.471Z,100.00
2022-12-11T01:11:07.954Z,100.00
2022-12-11T01:13:35.005Z,100.00
2022-12-11T01:16:15.203Z,100.00
2022-12-11T01:18:42.558Z,100.00
2022-12-11T01:21:11.512Z,100.00
2022-12-11T01:23:38.260Z,100.00
2022-12-11T01:26:10.371Z,100.00
2022-12-11T01:28:37.146Z,100.00
2022-12-11T01:31:11.999Z,100.00
2022-12-11T01:33:39.246Z,100.00
2022-12-11T01:36:13.981Z,100.00
2022-12-11T01:38:41.517Z,100.00
2022-12-11T01:41:09.168Z,100.00
2022-12-11T01:43:54.842Z,100.00
2022-12-11T01:46:21.511Z,100.00
2022-12-11T01:48:48.307Z,100.00
2022-12-11T01:51:15.063Z,100.00
2022-12-11T01:53:47.223Z,100.00
2022-12-11T01:56:14.652Z,100.00
2022-12-11T01:58:55.729Z,100.00
2022-12-11T02:01:33.100Z,100.00
2022-12-11T02:04:00.125Z,100.00
2022-12-11T02:06:37.969Z,100.00
2022-12-11T02:09:12.650Z,100.00
2022-12-11T02:11:45.538Z,100.00
2022-12-11T02:14:33.814Z,100.00
2022-12-11T02:17:16.038Z,100.00
2022-12-11T02:19:58.670Z,100.00
2022-12-11T02:22:53.106Z,100.00
2022-12-11T02:25:32.224Z,100.00
2022-12-11T02:28:34.377Z,100.00
2022-12-11T02:31:14.622Z,100.00
2022-12-11T02:34:10.268Z,100.00
2022-12-11T02:36:42.106Z,100.00
2022-12-11T02:39:11.889Z,100.00
2022-12-11T02:41:43.677Z,100.00
2022-12-11T02:44:12.533Z,100.00
2022-12-11T02:46:40.499Z,100.00
2022-12-11T02:49:09.265Z,100.00
2022-12-11T02:51:42.287Z,100.00
2022-12-11T02:54:14.475Z,100.00
2022-12-11T02:56:48.311Z,100.00
2022-12-11T02:59:20.493Z,100.00
2022-12-11T03:01:47.743Z,100.00
2022-12-11T03:04:14.467Z,100.00
2022-12-11T03:06:46.860Z,100.00
2022-12-11T03:09:13.456Z,100.00
2022-12-11T03:11:40.203Z,100.00
2022-12-11T03:14:08.278Z,100.00
2022-12-11T03:16:38.974Z,100.00
2022-12-11T03:19:25.808Z,100.00
2022-12-11T03:22:15.680Z,100.00
2022-12-11T03:24:53.248Z,100.00
2022-12-11T03:27:32.302Z,100.00
2022-12-11T03:30:10.773Z,100.00
2022-12-11T03:32:51.945Z,100.00
2022-12-11T03:35:28.089Z,100.00
2022-12-11T03:37:57.680Z,100.00
2022-12-11T03:40:26.503Z,100.00
2022-12-11T03:42:56.547Z,100.00
2022-12-11T03:45:26.177Z,100.00
2022-12-11T03:47:55.842Z,100.00
2022-12-11T03:50:24.294Z,100.00
2022-12-11T03:52:52.648Z,100.00
2022-12-11T03:55:22.609Z,100.00
2022-12-11T03:57:49.669Z,100.00
2022-12-11T04:00:19.482Z,100.00
2022-12-11T04:02:46.085Z,100.00
2022-12-11T04:05:12.925Z,100.00
2022-12-11T04:07:39.710Z,100.00
2022-12-11T04:10:06.582Z,100.00
2022-12-11T04:12:33.142Z,100.00
2022-12-11T04:14:59.727Z,100.00
2022-12-11T04:17:26.371Z,100.00
2022-12-11T04:19:52.936Z,100.00
2022-12-11T04:22:19.517Z,100.00
2022-12-11T04:24:48.349Z,100.00
2022-12-11T04:27:15.034Z,100.00
2022-12-11T04:29:41.612Z,100.00
2022-12-11T04:32:08.208Z,100.00
2022-12-11T04:34:34.775Z,100.00
2022-12-11T04:37:01.399Z,100.00
2022-12-11T04:39:27.996Z,100.00
2022-12-11T04:41:54.562Z,100.00
2022-12-11T04:44:21.180Z,100.00
2022-12-11T04:46:47.787Z,100.00
2022-12-11T04:49:14.362Z,100.00
2022-12-11T04:51:41.006Z,100.00
2022-12-11T04:54:07.555Z,100.00
2022-12-11T04:56:34.104Z,100.00
2022-12-11T04:59:01.046Z,100.00
2022-12-11T05:01:27.674Z,100.00
2022-12-11T05:03:54.280Z,100.00
2022-12-11T05:06:20.867Z,100.00
2022-12-11T05:08:47.441Z,100.00
2022-12-11T05:11:15.302Z,100.00
2022-12-11T05:13:42.495Z,100.00
2022-12-11T05:16:11.135Z,100.00
2022-12-11T05:18:37.869Z,100.00
2022-12-11T05:21:07.393Z,100.00
2022-12-11T05:23:34.334Z,100.00
2022-12-11T05:26:04.139Z,100.00
2022-12-11T05:28:33.009Z,100.00
2022-12-11T05:31:03.268Z,100.00
2022-12-11T05:33:30.651Z,100.00
2022-12-11T05:35:57.265Z,100.00
2022-12-11T05:38:24.220Z,100.00
2022-12-11T05:41:07.131Z,100.00
2022-12-11T05:43:35.628Z,100.00
2022-12-11T05:46:14.519Z,100.00
2022-12-11T05:48:42.414Z,100.00
2022-12-11T05:51:09.464Z,100.00
2022-12-11T05:53:37.343Z,100.00
2022-12-11T05:56:10.121Z,100.00
2022-12-11T05:58:36.769Z,100.00
2022-12-11T06:01:07.925Z,100.00
2022-12-11T06:03:34.578Z,100.00
2022-12-11T06:06:07.952Z,100.00
2022-12-11T06:08:34.596Z,100.00
2022-12-11T06:11:01.548Z,100.00
2022-12-11T06:13:28.117Z,100.00
2022-12-11T06:15:54.727Z,100.00
2022-12-11T06:18:21.544Z,100.00
2022-12-11T06:20:48.243Z,100.00
2022-12-11T06:23:14.823Z,100.00
2022-12-11T06:25:41.404Z,100.00
2022-12-11T06:28:08.010Z,100.00
2022-12-11T06:30:38.489Z,100.00
2022-12-11T06:33:06.625Z,100.00
2022-12-11T06:35:38.596Z,100.00
2022-12-11T06:38:07.208Z,100.00
2022-12-11T06:40:33.813Z,100.00
2022-12-11T06:43:00.467Z,100.00
2022-12-11T06:45:27.083Z,100.00
2022-12-11T06:47:53.683Z,100.00
2022-12-11T06:50:20.329Z,100.00
2022-12-11T06:52:46.933Z,100.00
2022-12-11T06:55:13.680Z,100.00
2022-12-11T06:57:40.471Z,100.00
2022-12-11T07:00:07.630Z,100.00
2022-12-11T07:02:34.315Z,100.00
2022-12-11T07:05:00.976Z,100.00
2022-12-11T07:07:27.555Z,100.00
2022-12-11T07:09:54.196Z,100.00
2022-12-11T07:12:20.786Z,100.00
2022-12-11T07:14:47.365Z,100.00
2022-12-11T07:17:14.093Z,100.00
2022-12-11T07:19:40.680Z,100.00
2022-12-11T07:22:07.366Z,100.00
2022-12-11T07:24:33.976Z,100.00
2022-12-11T07:27:00.792Z,100.00
2022-12-11T07:29:27.365Z,100.00
2022-12-11T07:31:54.115Z,100.00
2022-12-11T07:34:20.787Z,100.00
2022-12-11T07:36:47.371Z,100.00
2022-12-11T07:39:14.067Z,100.00
2022-12-11T07:41:40.652Z,100.00
2022-12-11T07:44:07.213Z,100.00
2022-12-11T07:46:34.700Z,100.00
2022-12-11T07:49:01.624Z,100.00
2022-12-11T07:51:30.827Z,100.00
2022-12-11T07:54:02.787Z,100.00
2022-12-11T07:56:30.600Z,100.00
2022-12-11T07:59:00.403Z,100.00
2022-12-11T08:01:29.307Z,100.00
2022-12-11T08:03:57.022Z,100.00
2022-12-11T08:06:29.308Z,100.00
2022-12-11T08:08:57.569Z,100.00
2022-12-11T08:11:24.483Z,100.00
2022-12-11T08:13:51.063Z,100.00
2022-12-11T08:16:18.824Z,100.00
2022-12-11T08:18:47.318Z,100.00
2022-12-11T08:21:23.127Z,100.00
2022-12-11T08:23:50.444Z,100.00
2022-12-11T08:26:19.731Z,100.00
2022-12-11T08:28:46.503Z,100.00
2022-12-11T08:31:15.043Z,100.00
2022-12-11T08:33:42.029Z,100.00
2022-12-11T08:36:12.001Z,100.00
2022-12-11T08:38:38.943Z,100.00
2022-12-11T08:41:19.377Z,100.00
2022-12-11T08:43:46.252Z,100.00
2022-12-11T08:46:13.279Z,100.00
2022-12-11T08:48:42.499Z,100.00
2022-12-11T08:51:13.435Z,100.00
2022-12-11T08:53:40.092Z,100.00
2022-12-11T08:56:16.169Z,100.00
2022-12-11T08:58:44.178Z,100.00
2022-12-11T09:01:13.626Z,100.00
2022-12-11T09:03:40.710Z,100.00
2022-12-11T09:06:13.031Z,100.00
2022-12-11T09:08:40.576Z,100.00
2022-12-11T09:11:13.291Z,100.00
2022-12-11T09:13:40.549Z,100.00
2022-12-11T09:16:09.155Z,100.00
2022-12-11T09:18:37.110Z,100.00
2022-12-11T09:21:09.575Z,100.00
2022-12-11T09:23:36.289Z,100.00
2022-12-11T09:26:11.394Z,100.00
2022-12-11T09:28:44.300Z,100.00
2022-12-11T09:31:19.336Z,100.00
2022-12-11T09:33:46.725Z,100.00
2022-12-11T09:36:14.062Z,100.00
2022-12-11T09:38:41.087Z,100.00
2022-12-11T09:41:35.086Z,100.00
2022-12-11T09:44:21.827Z,100.00
2022-12-11T09:46:48.979Z,100.00
2022-12-11T09:49:21.543Z,100.00
2022-12-11T09:52:06.280Z,100.00
2022-12-11T09:54:33.471Z,100.00
2022-12-11T09:57:20.637Z,100.00
2022-12-11T10:00:05.772Z,100.00
2022-12-11T10:02:52.865Z,100.00
2022-12-11T10:05:37.620Z,100.00
2022-12-11T10:08:30.401Z,100.00
2022-12-11T10:11:28.175Z,100.00
2022-12-11T10:14:26.208Z,100.00
2022-12-11T10:17:07.000Z,100.00
2022-12-11T10:19:34.752Z,100.00
2022-12-11T10:22:02.251Z,100.00
2022-12-11T10:25:10.089Z,100.00
2022-12-11T10:27:34.132Z,100.00
2022-12-11T10:30:13.041Z,100.00
2022-12-11T10:32:53.679Z,100.00
2022-12-11T10:35:40.534Z,100.00
2022-12-11T10:38:17.511Z,100.00
2022-12-11T10:40:51.872Z,100.00
2022-12-11T10:43:18.619Z,100.00
2022-12-11T10:45:53.909Z,100.00
2022-12-11T10:48:21.499Z,100.00
2022-12-11T10:51:04.576Z,100.00
2022-12-11T10:53:33.926Z,100.00
2022-12-11T10:56:00.856Z,100.00
2022-12-11T10:58:30.530Z,100.00
2022-12-11T11:01:15.642Z,100.00
2022-12-11T11:04:00.431Z,100.00
2022-12-11T11:06:27.233Z,100.00
2022-12-11T11:08:57.120Z,100.00
2022-12-11T11:11:25.315Z,100.00
2022-12-11T11:13:51.989Z,100.00
2022-12-11T11:16:21.114Z,100.00
2022-12-11T11:18:55.770Z,100.00
2022-12-11T11:21:24.798Z,100.00
2022-12-11T11:23:53.851Z,100.00
2022-12-11T11:26:22.085Z,100.00
2022-12-11T11:28:56.949Z,100.00
2022-12-11T11:31:34.519Z,100.00
2022-12-11T11:34:05.436Z,100.00
2022-12-11T11:36:34.694Z,100.00
2022-12-11T11:39:23.329Z,100.00
2022-12-11T11:42:14.164Z,100.00
2022-12-11T11:44:52.133Z,100.00
2022-12-11T11:47:30.727Z,100.00
2022-12-11T11:50:19.329Z,100.00
2022-12-11T11:52:53.604Z,100.00
2022-12-11T11:55:35.117Z,100.00
2022-12-11T11:58:17.353Z,100.00
2022-12-11T12:00:44.032Z,100.00
2022-12-11T12:03:14.164Z,100.00
2022-12-11T12:05:43.690Z,100.00
2022-12-11T12:08:20.439Z,100.00
2022-12-11T12:10:52.924Z,100.00
2022-12-11T12:13:48.992Z,100.00
2022-12-11T12:19:30.215Z,100.00
2022-12-11T12:22:08.413Z,100.00
2022-12-11T12:24:55.247Z,100.00
2022-12-11T12:27:51.675Z,100.00
2022-12-11T12:30:22.842Z,100.00
2022-12-11T12:33:17.997Z,100.00
2022-12-11T12:36:07.294Z,100.00
2022-12-11T12:38:55.308Z,100.00
2022-12-11T12:41:36.599Z,100.00
2022-12-11T12:44:16.318Z,100.00
2022-12-11T12:47:10.197Z,100.00
2022-12-11T12:49:48.473Z,100.00
2022-12-11T12:52:19.323Z,100.00
2022-12-11T12:54:49.018Z,100.00
2022-12-11T12:57:15.666Z,100.00
2022-12-11T12:59:42.298Z,100.00
2022-12-11T13:02:17.201Z,100.00
2022-12-11T13:04:59.425Z,100.00
2022-12-11T13:07:31.714Z,100.00
2022-12-11T13:09:59.527Z,100.00
2022-12-11T13:12:41.404Z,100.00
2022-12-11T13:15:30.410Z,99.51
2022-12-11T13:17:57.616Z,100.00
2022-12-11T13:20:33.575Z,100.00
2022-12-11T13:23:00.109Z,100.00
2022-12-11T13:25:33.047Z,100.00
2022-12-11T13:28:27.647Z,100.00
2022-12-11T13:31:20.623Z,98.67
2022-12-11T13:33:53.167Z,100.00
2022-12-11T13:36:24.373Z,99.23
2022-12-11T13:39:27.735Z,100.00
2022-12-11T13:41:59.860Z,100.00
2022-12-11T13:44:29.882Z,99.05
2022-12-11T13:47:00.272Z,99.12
2022-12-11T13:49:33.449Z,100.00
2022-12-11T13:52:01.005Z,99.89
2022-12-11T13:54:29.405Z,100.00
2022-12-11T13:57:04.188Z,100.00
2022-12-11T13:59:36.485Z,100.00
2022-12-11T14:02:13.611Z,99.84
2022-12-11T14:04:40.948Z,99.53
2022-12-11T14:07:11.740Z,98.48
2022-12-11T14:09:43.938Z,98.58
2022-12-11T14:12:20.114Z,99.34
2022-12-11T14:14:51.329Z,98.73
2022-12-11T14:17:25.828Z,97.99
2022-12-11T14:19:54.951Z,99.49
2022-12-11T14:22:25.289Z,97.26
2022-12-11T14:24:57.012Z,96.97
2022-12-11T14:27:24.627Z,98.06
2022-12-11T14:29:51.746Z,96.69
2022-12-11T14:32:32.304Z,96.72
2022-12-11T14:35:02.327Z,98.10
2022-12-11T14:37:29.154Z,99.46
2022-12-11T14:40:19.580Z,98.88
2022-12-11T14:42:55.688Z,100.00
2022-12-11T14:45:34.381Z,100.00
2022-12-11T14:48:08.481Z,99.44
2022-12-11T14:50:41.120Z,98.97
2022-12-11T14:53:14.229Z,100.00
2022-12-11T14:55:41.502Z,100.00
2022-12-11T14:58:21.729Z,100.00
2022-12-11T15:00:58.624Z,99.00
2022-12-11T15:03:34.712Z,98.82
2022-12-11T15:06:03.397Z,98.92
2022-12-11T15:08:35.313Z,98.23
2022-12-11T15:11:14.785Z,98.05
2022-12-11T15:14:09.485Z,99.67
2022-12-11T15:16:43.123Z,100.00
2022-12-11T15:19:23.228Z,98.93
2022-12-11T15:21:51.189Z,100.00
2022-12-11T15:24:35.219Z,100.00
2022-12-11T15:27:03.970Z,98.51
2022-12-11T15:29:33.191Z,99.41
2022-12-11T15:32:03.719Z,99.68
2022-12-11T15:34:46.742Z,100.00
2022-12-11T15:37:30.997Z,98.22
2022-12-11T15:40:00.284Z,99.80
2022-12-11T15:42:32.611Z,97.02
2022-12-11T15:45:00.224Z,97.72
2022-12-11T15:47:29.459Z,98.35
2022-12-11T15:50:11.612Z,96.40
2022-12-11T15:52:38.478Z,97.27
2022-12-11T15:55:05.489Z,95.77
2022-12-11T15:57:32.140Z,97.20
2022-12-11T15:59:58.941Z,98.16
2022-12-11T16:02:25.871Z,99.51
2022-12-11T16:04:52.551Z,97.52
2022-12-11T16:07:22.669Z,96.80
2022-12-11T16:09:49.407Z,97.48
2022-12-11T16:12:16.641Z,97.34
2022-12-11T16:14:45.271Z,96.70
2022-12-11T16:17:14.837Z,94.90
2022-12-11T16:19:42.743Z,95.41
2022-12-11T16:22:10.421Z,95.79
2022-12-11T16:24:37.741Z,95.55
2022-12-11T16:27:04.870Z,94.76
2022-12-11T16:29:36.200Z,94.48
2022-12-11T16:32:02.936Z,95.27
2022-12-11T16:34:29.751Z,95.33
2022-12-11T16:36:59.513Z,96.15
2022-12-11T16:39:26.999Z,96.51
2022-12-11T16:41:53.704Z,95.13
2022-12-11T16:44:22.512Z,93.11
2022-12-11T16:46:49.621Z,94.67
2022-12-11T16:49:17.090Z,95.75
2022-12-11T16:51:44.473Z,95.04
2022-12-11T16:54:11.883Z,94.30
2022-12-11T16:56:38.878Z,93.97
2022-12-11T16:59:06.183Z,94.29
2022-12-11T17:01:33.934Z,95.70
2022-12-11T17:04:00.950Z,94.07
2022-12-11T17:06:27.858Z,93.76
2022-12-11T17:08:54.457Z,92.87
2022-12-11T17:11:22.892Z,94.65
2022-12-11T17:13:54.178Z,93.03
2022-12-11T17:16:21.617Z,94.23
2022-12-11T17:18:48.557Z,93.84
2022-12-11T17:21:17.642Z,94.33
2022-12-11T17:23:44.742Z,95.18
2022-12-11T17:26:11.966Z,94.17
2022-12-11T17:28:39.476Z,93.66
2022-12-11T17:31:18.119Z,93.09
2022-12-11T17:33:46.422Z,93.86
2022-12-11T17:36:18.230Z,94.53
2022-12-11T17:38:45.511Z,93.21
2022-12-11T17:41:20.043Z,94.95
2022-12-11T17:43:49.101Z,94.51
2022-12-11T17:46:16.259Z,92.40
2022-12-11T17:48:42.945Z,93.40
2022-12-11T17:51:12.573Z,94.21
2022-12-11T17:53:39.455Z,93.66
2022-12-11T17:56:08.326Z,92.20
2022-12-11T17:58:35.405Z,94.00
2022-12-11T18:01:07.842Z,93.82
2022-12-11T18:03:35.048Z,93.45
2022-12-11T18:06:12.221Z,93.19
2022-12-11T18:08:39.725Z,91.23
2022-12-11T18:11:15.905Z,91.43
2022-12-11T18:13:43.778Z,92.79
2022-12-11T18:16:23.542Z,93.78
2022-12-11T18:18:50.873Z,93.72
2022-12-11T18:21:21.578Z,92.66
2022-12-11T18:23:48.998Z,93.70
2022-12-11T18:26:17.171Z,94.37
2022-12-11T18:28:44.320Z,92.12
2022-12-11T18:31:11.219Z,94.26
2022-12-11T18:33:39.971Z,93.94
2022-12-11T18:36:07.153Z,94.58
2022-12-11T18:38:33.790Z,93.60
2022-12-11T18:41:07.214Z,93.83
2022-12-11T18:43:33.951Z,93.25
2022-12-11T18:46:00.756Z,92.31
2022-12-11T18:48:27.354Z,94.53
2022-12-11T18:50:53.983Z,95.78
2022-12-11T18:53:20.693Z,95.62
2022-12-11T18:55:48.944Z,94.36
2022-12-11T18:58:18.406Z,95.07
2022-12-11T19:00:45.660Z,94.59
2022-12-11T19:03:12.842Z,95.11
2022-12-11T19:05:40.233Z,95.97
2022-12-11T19:08:06.845Z,95.44
2022-12-11T19:10:33.534Z,96.85
2022-12-11T19:13:00.120Z,97.25
2022-12-11T19:15:26.710Z,94.99
2022-12-11T19:17:53.292Z,96.53
2022-12-11T19:20:47.661Z,95.81
2022-12-11T19:23:06.518Z,96.07
2022-12-11T19:25:33.228Z,96.74
2022-12-11T19:28:00.039Z,95.92
2022-12-11T19:30:26.826Z,97.28
2022-12-11T19:32:53.445Z,96.67
2022-12-11T19:35:20.210Z,96.83
2022-12-11T19:37:46.868Z,97.83
2022-12-11T19:40:13.518Z,95.81
2022-12-11T19:42:40.452Z,95.78
2022-12-11T19:45:07.354Z,96.56
2022-12-11T19:47:34.707Z,96.23
2022-12-11T19:50:01.297Z,97.78
2022-12-11T19:52:27.883Z,97.03
2022-12-11T19:54:54.485Z,96.64
2022-12-11T19:57:21.083Z,96.65
2022-12-11T19:59:50.312Z,96.09
2022-12-11T20:02:20.602Z,96.54
2022-12-11T20:04:47.230Z,96.27
2022-12-11T20:07:13.822Z,96.85
2022-12-11T20:09:40.397Z,95.87
2022-12-11T20:12:07.049Z,96.26
2022-12-11T20:14:33.648Z,96.33
2022-12-11T20:17:15.750Z,97.95
2022-12-11T20:19:42.929Z,98.24
2022-12-11T20:22:09.869Z,99.12
2022-12-11T20:24:36.662Z,99.88
2022-12-11T20:27:03.694Z,100.00
2022-12-11T20:29:30.354Z,100.00
2022-12-11T20:31:57.038Z,100.00
2022-12-11T20:34:23.704Z,100.00
2022-12-11T20:36:51.990Z,100.00
2022-12-11T20:39:18.549Z,100.00
2022-12-11T20:41:45.173Z,100.00
2022-12-11T20:44:11.766Z,100.00
2022-12-11T20:46:38.433Z,100.00
2022-12-11T20:49:05.093Z,100.00
2022-12-11T20:51:31.680Z,100.00
2022-12-11T20:53:59.282Z,100.00
2022-12-11T20:56:29.705Z,100.00
2022-12-11T20:58:57.605Z,100.00
2022-12-11T21:01:26.122Z,100.00
2022-12-11T21:03:52.771Z,100.00
2022-12-11T21:06:25.514Z,100.00
2022-12-11T21:08:53.101Z,100.00
2022-12-11T21:11:20.158Z,100.00
2022-12-11T21:13:46.750Z,100.00
2022-12-11T21:16:13.383Z,100.00
2022-12-11T21:18:40.377Z,100.00
2022-12-11T21:21:07.328Z,100.00
2022-12-11T21:23:34.160Z,100.00
2022-12-11T21:26:00.838Z,100.00
2022-12-11T21:28:33.575Z,100.00
2022-12-11T21:31:06.691Z,100.00
2022-12-11T21:33:34.363Z,100.00
2022-12-11T21:36:01.557Z,100.00
2022-12-11T21:38:28.881Z,100.00
2022-12-11T21:40:56.434Z,100.00
2022-12-11T21:43:23.584Z,100.00
2022-12-11T21:46:05.673Z,100.00
2022-12-11T21:48:32.895Z,100.00
2022-12-11T21:51:35.683Z,100.00
2022-12-11T21:54:06.454Z,100.00
2022-12-11T21:56:33.281Z,100.00
2022-12-11T21:58:59.899Z,100.00
2022-12-11T22:01:29.791Z,100.00
2022-12-11T22:03:56.907Z,100.00
2022-12-11T22:06:23.716Z,100.00
2022-12-11T22:08:50.496Z,100.00
2022-12-11T22:11:23.707Z,100.00
2022-12-11T22:13:50.339Z,100.00
2022-12-11T22:16:16.985Z,100.00
2022-12-11T22:18:43.660Z,100.00
2022-12-11T22:21:10.904Z,100.00
2022-12-11T22:23:38.652Z,100.00
2022-12-11T22:26:06.557Z,100.00
2022-12-11T22:28:33.494Z,100.00
2022-12-11T22:31:00.218Z,100.00
2022-12-11T22:33:26.964Z,100.00
2022-12-11T22:36:00.560Z,100.00
2022-12-11T22:38:27.195Z,100.00
2022-12-11T22:40:54.389Z,100.00
2022-12-11T22:43:21.641Z,100.00
2022-12-11T22:45:48.532Z,100.00
2022-12-11T22:48:15.225Z,100.00
2022-12-11T22:50:41.828Z,100.00
2022-12-11T22:53:08.602Z,100.00
2022-12-11T22:55:38.644Z,100.00
2022-12-11T22:58:05.418Z,100.00
2022-12-11T23:00:32.011Z,100.00
2022-12-11T23:02:58.695Z,100.00
2022-12-11T23:05:25.413Z,100.00
2022-12-11T23:07:52.158Z,100.00
2022-12-11T23:10:18.861Z,100.00
2022-12-11T23:12:45.522Z,100.00
2022-12-11T23:15:12.687Z,100.00
2022-12-11T23:17:39.548Z,100.00
2022-12-11T23:20:07.304Z,100.00
2022-12-11T23:22:34.049Z,100.00
2022-12-11T23:25:00.895Z,100.00
2022-12-11T23:27:27.954Z,100.00
2022-12-11T23:29:54.561Z,100.00
2022-12-11T23:32:21.202Z,100.00
2022-12-11T23:34:47.778Z,100.00
2022-12-11T23:37:14.473Z,100.00
2022-12-11T23:39:41.169Z,100.00
2022-12-11T23:42:07.740Z,100.00
2022-12-11T23:44:34.345Z,100.00
2022-12-11T23:47:00.918Z,100.00
2022-12-11T23:49:27.653Z,100.00
2022-12-11T23:51:54.280Z,100.00
2022-12-11T23:54:20.871Z,100.00
2022-12-11T23:56:47.538Z,100.00
2022-12-11T23:59:15.260Z,100.00
